createdAt,value
2018-06-21T00:00:20.538Z,20.23
2018-06-21T00:01:25.981Z,16.90
2018-06-21T00:02:31.451Z,22.17
2018-06-21T00:03:36.924Z,19.23
2018-06-21T00:04:42.426Z,16.50
2018-06-21T00:05:47.853Z,15.63
2018-06-21T00:06:53.264Z,19.67
2018-06-21T00:07:58.681Z,22.37
2018-06-21T00:09:04.741Z,19.63
2018-06-21T00:10:10.337Z,21.30
2018-06-21T00:11:15.762Z,18.50
2018-06-21T00:12:21.197Z,24.03
2018-06-21T00:13:26.613Z,22.13
2018-06-21T00:14:32.045Z,23.00
2018-06-21T00:15:37.527Z,17.63
2018-06-21T00:16:42.934Z,23.23
2018-06-21T00:17:48.373Z,16.83
2018-06-21T00:18:53.823Z,20.63
2018-06-21T00:19:59.246Z,28.33
2018-06-21T00:21:05.085Z,18.93
2018-06-21T00:22:10.521Z,22.50
2018-06-21T00:23:16.066Z,17.37
2018-06-21T00:24:21.610Z,16.00
2018-06-21T00:25:27.027Z,18.60
2018-06-21T00:26:32.467Z,24.43
2018-06-21T00:27:38.041Z,20.27
2018-06-21T00:28:43.462Z,17.30
2018-06-21T00:29:48.929Z,18.17
2018-06-21T00:30:54.416Z,19.60
2018-06-21T00:31:59.868Z,16.87
2018-06-21T00:33:05.304Z,20.63
2018-06-21T00:34:10.731Z,18.57
2018-06-21T00:35:16.215Z,20.63
2018-06-21T00:36:21.714Z,19.40
2018-06-21T00:37:27.132Z,21.30
2018-06-21T00:38:32.538Z,18.40
2018-06-21T00:39:38.193Z,17.03
2018-06-21T00:40:43.680Z,15.97
2018-06-21T00:41:49.201Z,19.13
2018-06-21T00:42:54.618Z,17.33
2018-06-21T00:44:00.122Z,16.73
2018-06-21T00:45:05.754Z,18.40
2018-06-21T00:46:11.272Z,18.13
2018-06-21T00:47:16.705Z,19.63
2018-06-21T00:48:22.179Z,20.63
2018-06-21T00:49:27.853Z,21.60
2018-06-21T00:50:33.306Z,14.27
2018-06-21T00:51:38.732Z,17.00
2018-06-21T00:52:44.170Z,19.30
2018-06-21T00:53:49.605Z,18.73
2018-06-21T00:54:55.086Z,17.33
2018-06-21T00:56:17.169Z,22.10
2018-06-21T00:57:22.692Z,17.00
2018-06-21T00:58:28.108Z,19.30
2018-06-21T00:59:33.538Z,18.47
2018-06-21T01:00:38.977Z,19.40
2018-06-21T01:01:44.578Z,16.27
2018-06-21T01:02:49.740Z,17.00
2018-06-21T01:03:55.093Z,14.10
2018-06-21T01:05:00.547Z,17.73
2018-06-21T01:06:06.094Z,18.77
2018-06-21T01:07:11.549Z,14.10
2018-06-21T01:08:16.949Z,16.17
2018-06-21T01:09:22.474Z,14.60
2018-06-21T01:10:27.926Z,18.40
2018-06-21T01:11:33.333Z,21.70
2018-06-21T01:12:38.809Z,14.43
2018-06-21T01:13:44.257Z,18.43
2018-06-21T01:14:50.573Z,21.53
2018-06-21T01:15:56.098Z,27.90
2018-06-21T01:17:01.754Z,15.83
2018-06-21T01:18:07.367Z,15.13
2018-06-21T01:19:12.781Z,14.87
2018-06-21T01:20:18.180Z,13.50
2018-06-21T01:21:23.602Z,12.63
2018-06-21T01:22:28.828Z,12.73
2018-06-21T01:23:34.283Z,13.00
2018-06-21T01:24:39.692Z,20.40
2018-06-21T01:25:45.133Z,15.20
2018-06-21T01:26:50.560Z,13.73
2018-06-21T01:27:56.022Z,12.80
2018-06-21T01:29:01.458Z,11.27
2018-06-21T01:30:06.913Z,15.07
2018-06-21T01:31:12.365Z,11.50
2018-06-21T01:32:17.787Z,12.50
2018-06-21T01:33:23.284Z,14.30
2018-06-21T01:34:28.824Z,13.70
2018-06-21T01:35:34.222Z,12.60
2018-06-21T01:36:39.644Z,14.60
2018-06-21T01:37:45.194Z,16.17
2018-06-21T01:38:50.626Z,8.87
2018-06-21T01:39:56.197Z,12.30
2018-06-21T01:41:01.620Z,12.00
2018-06-21T01:42:07.052Z,12.37
2018-06-21T01:43:12.499Z,16.43
2018-06-21T01:44:17.908Z,11.00
2018-06-21T01:45:23.368Z,11.83
2018-06-21T01:46:28.768Z,12.17
2018-06-21T01:47:34.329Z,16.10
2018-06-21T01:48:39.738Z,12.57
2018-06-21T01:49:45.201Z,12.20
2018-06-21T01:50:50.597Z,13.80
2018-06-21T01:51:56.043Z,12.00
2018-06-21T01:53:01.538Z,22.70
2018-06-21T01:54:07.009Z,13.67
2018-06-21T01:55:12.490Z,14.07
2018-06-21T01:56:17.900Z,13.83
2018-06-21T01:57:23.347Z,13.43
2018-06-21T01:58:28.780Z,14.00
2018-06-21T01:59:34.349Z,13.50
2018-06-21T02:00:39.781Z,10.80
2018-06-21T02:01:45.313Z,12.90
2018-06-21T02:02:50.721Z,11.93
2018-06-21T02:03:56.257Z,18.07
2018-06-21T02:05:01.858Z,13.27
2018-06-21T02:06:07.403Z,13.60
2018-06-21T02:07:12.825Z,17.13
2018-06-21T02:08:18.314Z,15.40
2018-06-21T02:09:23.865Z,11.07
2018-06-21T02:10:29.381Z,11.63
2018-06-21T02:11:34.823Z,13.00
2018-06-21T02:12:40.302Z,15.17
2018-06-21T02:13:45.812Z,14.30
2018-06-21T02:14:51.237Z,11.77
2018-06-21T02:15:56.994Z,10.53
2018-06-21T02:17:02.447Z,19.40
2018-06-21T02:18:08.069Z,11.80
2018-06-21T02:19:14.164Z,13.10
2018-06-21T02:20:20.113Z,11.73
2018-06-21T02:21:25.864Z,20.73
2018-06-21T02:22:31.922Z,12.17
2018-06-21T02:23:37.685Z,10.20
2018-06-21T02:24:43.408Z,10.40
2018-06-21T02:25:49.178Z,15.40
2018-06-21T02:26:55.720Z,12.90
2018-06-21T02:28:01.393Z,16.50
2018-06-21T02:29:07.487Z,13.07
2018-06-21T02:30:13.271Z,12.53
2018-06-21T02:31:19.020Z,13.13
2018-06-21T02:32:24.775Z,14.00
2018-06-21T02:33:30.472Z,11.37
2018-06-21T02:34:36.164Z,17.63
2018-06-21T02:35:41.861Z,15.00
2018-06-21T02:36:47.607Z,14.43
2018-06-21T02:37:53.302Z,12.20
2018-06-21T02:38:59.222Z,13.40
2018-06-21T02:40:05.367Z,12.77
2018-06-21T02:41:11.112Z,15.43
2018-06-21T02:42:16.792Z,11.73
2018-06-21T02:43:22.539Z,17.10
2018-06-21T02:44:28.388Z,18.40
2018-06-21T02:45:34.071Z,11.97
2018-06-21T02:46:39.691Z,15.17
2018-06-21T02:47:45.385Z,12.80
2018-06-21T02:48:51.173Z,12.93
2018-06-21T02:49:56.921Z,15.63
2018-06-21T02:51:02.663Z,17.00
2018-06-21T02:52:08.719Z,13.30
2018-06-21T02:53:14.398Z,13.20
2018-06-21T02:54:20.119Z,15.10
2018-06-21T02:55:25.959Z,14.53
2018-06-21T02:56:31.703Z,21.27
2018-06-21T02:57:37.777Z,14.63
2018-06-21T02:58:43.524Z,12.87
2018-06-21T02:59:49.256Z,13.03
2018-06-21T03:00:55.662Z,17.53
2018-06-21T03:02:01.502Z,22.10
2018-06-21T03:03:07.415Z,20.20
2018-06-21T03:04:13.265Z,20.30
2018-06-21T03:05:19.011Z,16.37
2018-06-21T03:06:24.761Z,20.87
2018-06-21T03:07:30.479Z,16.07
2018-06-21T03:08:35.942Z,19.00
2018-06-21T03:09:41.599Z,15.20
2018-06-21T03:10:47.645Z,21.80
2018-06-21T03:11:53.491Z,19.67
2018-06-21T03:12:59.252Z,20.30
2018-06-21T03:14:05.091Z,17.00
2018-06-21T03:15:10.759Z,19.70
2018-06-21T03:16:16.583Z,23.43
2018-06-21T03:17:22.737Z,29.27
2018-06-21T03:18:28.591Z,21.10
2018-06-21T03:19:34.358Z,26.77
2018-06-21T03:20:39.992Z,21.10
2018-06-21T03:21:45.487Z,30.53
2018-06-21T03:22:50.946Z,21.30
2018-06-21T03:23:56.399Z,30.57
2018-06-21T03:25:01.846Z,24.17
2018-06-21T03:26:07.481Z,29.57
2018-06-21T03:27:13.164Z,36.17
2018-06-21T03:28:18.485Z,29.47
2018-06-21T03:29:24.187Z,40.30
2018-06-21T03:30:29.866Z,36.10
2018-06-21T03:31:36.179Z,36.10
2018-06-21T03:32:41.883Z,31.40
2018-06-21T03:33:47.619Z,37.73
2018-06-21T03:34:53.063Z,37.77
2018-06-21T03:35:58.497Z,43.90
2018-06-21T03:37:03.974Z,41.70
2018-06-21T03:38:09.624Z,40.70
2018-06-21T03:39:15.165Z,40.17
2018-06-21T03:40:20.598Z,40.30
2018-06-21T03:41:26.034Z,37.03
2018-06-21T03:42:31.458Z,44.00
2018-06-21T03:43:36.939Z,40.30
2018-06-21T03:44:42.505Z,32.37
2018-06-21T03:45:47.958Z,34.23
2018-06-21T03:46:53.542Z,38.73
2018-06-21T03:47:59.073Z,38.77
2018-06-21T03:49:04.496Z,28.40
2018-06-21T03:50:09.931Z,37.67
2018-06-21T03:51:15.361Z,34.63
2018-06-21T03:52:20.863Z,43.57
2018-06-21T03:53:26.218Z,39.40
2018-06-21T03:54:31.773Z,35.17
2018-06-21T03:55:37.185Z,32.03
2018-06-21T03:56:42.744Z,36.43
2018-06-21T03:57:48.213Z,36.17
2018-06-21T03:58:53.653Z,28.00
2018-06-21T03:59:58.844Z,25.53
2018-06-21T04:01:04.229Z,29.17
2018-06-21T04:02:09.673Z,39.33
2018-06-21T04:03:15.213Z,32.03
2018-06-21T04:04:20.555Z,32.43
2018-06-21T04:05:26.045Z,29.97
2018-06-21T04:06:31.467Z,30.97
2018-06-21T04:07:36.879Z,36.10
2018-06-21T04:08:42.381Z,27.60
2018-06-21T04:09:47.782Z,29.37
2018-06-21T04:10:53.205Z,27.87
2018-06-21T04:11:58.750Z,30.57
2018-06-21T04:13:04.665Z,30.77
2018-06-21T04:14:18.950Z,28.80
2018-06-21T04:15:26.034Z,27.93
2018-06-21T04:16:31.501Z,26.47
2018-06-21T04:17:36.944Z,27.97
2018-06-21T04:18:42.403Z,33.00
2018-06-21T04:19:47.878Z,27.53
2018-06-21T04:20:53.309Z,23.27
2018-06-21T04:21:58.773Z,31.27
2018-06-21T04:23:04.191Z,26.57
2018-06-21T04:24:09.606Z,24.60
2018-06-21T04:25:15.061Z,30.77
2018-06-21T04:26:20.580Z,27.93
2018-06-21T04:27:26.146Z,28.30
2018-06-21T04:28:31.551Z,29.73
2018-06-21T04:29:36.993Z,30.77
2018-06-21T04:30:42.409Z,30.83
2018-06-21T04:31:47.860Z,28.87
2018-06-21T04:32:53.389Z,31.30
2018-06-21T04:33:58.788Z,28.80
2018-06-21T04:35:04.216Z,34.13
2018-06-21T04:36:09.623Z,30.03
2018-06-21T04:37:15.178Z,26.53
2018-06-21T04:38:20.890Z,26.33
2018-06-21T04:39:26.369Z,27.90
2018-06-21T04:40:31.892Z,31.13
2018-06-21T04:41:37.327Z,24.87
2018-06-21T04:42:42.888Z,23.40
2018-06-21T04:43:48.347Z,33.77
2018-06-21T04:44:53.805Z,27.40
2018-06-21T04:45:59.247Z,24.83
2018-06-21T04:47:04.745Z,27.27
2018-06-21T04:48:10.317Z,22.50
2018-06-21T04:49:15.745Z,19.87
2018-06-21T04:50:21.155Z,24.00
2018-06-21T04:51:26.591Z,22.70
2018-06-21T04:52:32.055Z,22.30
2018-06-21T04:53:37.446Z,16.40
2018-06-21T04:54:42.845Z,18.30
2018-06-21T04:55:48.320Z,15.43
2018-06-21T04:56:53.729Z,14.07
2018-06-21T04:57:59.120Z,15.47
2018-06-21T04:59:04.877Z,18.83
2018-06-21T05:00:10.485Z,14.50
2018-06-21T05:01:16.053Z,16.10
2018-06-21T05:02:21.722Z,15.50
2018-06-21T05:03:27.222Z,16.63
2018-06-21T05:04:32.649Z,15.93
2018-06-21T05:05:38.106Z,14.57
2018-06-21T05:06:43.787Z,18.87
2018-06-21T05:07:49.647Z,19.10
2018-06-21T05:08:55.110Z,14.97
2018-06-21T05:10:00.518Z,18.53
2018-06-21T05:11:05.952Z,13.10
2018-06-21T05:12:11.981Z,16.60
2018-06-21T05:13:17.656Z,17.03
2018-06-21T05:14:23.057Z,14.00
2018-06-21T05:15:28.481Z,11.43
2018-06-21T05:16:33.901Z,12.20
2018-06-21T05:17:39.425Z,12.77
2018-06-21T05:18:45.108Z,10.20
2018-06-21T05:19:50.715Z,11.47
2018-06-21T05:20:56.130Z,9.60
2018-06-21T05:22:01.538Z,9.67
2018-06-21T05:23:07.213Z,8.80
2018-06-21T05:24:12.639Z,7.63
2018-06-21T05:25:18.016Z,10.17
2018-06-21T05:26:23.480Z,5.87
2018-06-21T05:27:28.896Z,9.50
2018-06-21T05:28:34.340Z,8.30
2018-06-21T05:29:39.861Z,14.87
2018-06-21T05:30:44.948Z,17.40
2018-06-21T05:31:50.346Z,6.97
2018-06-21T05:32:55.771Z,11.57
2018-06-21T05:34:01.294Z,8.63
2018-06-21T05:35:06.754Z,11.07
2018-06-21T05:36:12.178Z,9.03
2018-06-21T05:37:17.801Z,5.53
2018-06-21T05:38:24.750Z,7.87
2018-06-21T05:39:31.190Z,7.80
2018-06-21T05:40:38.021Z,7.30
2018-06-21T05:41:44.870Z,12.57
2018-06-21T05:42:51.610Z,7.83
2018-06-21T05:43:57.123Z,9.70
2018-06-21T05:45:02.548Z,8.67
2018-06-21T05:46:08.049Z,8.90
2018-06-21T05:47:14.105Z,13.67
2018-06-21T05:48:19.526Z,8.03
2018-06-21T05:49:25.021Z,8.10
2018-06-21T05:50:31.728Z,12.30
2018-06-21T05:51:37.121Z,7.77
2018-06-21T05:52:42.590Z,4.93
2018-06-21T05:53:48.013Z,6.87
2018-06-21T05:54:53.426Z,8.40
2018-06-21T05:55:58.881Z,6.97
2018-06-21T05:57:04.293Z,10.57
2018-06-21T05:58:09.725Z,10.77
2018-06-21T05:59:15.265Z,14.13
2018-06-21T06:00:20.778Z,9.83
2018-06-21T06:01:26.305Z,8.77
2018-06-21T06:02:31.727Z,9.00
2018-06-21T06:03:37.206Z,8.20
2018-06-21T06:04:42.610Z,11.57
2018-06-21T06:05:48.058Z,11.50
2018-06-21T06:06:53.577Z,10.83
2018-06-21T06:07:58.995Z,8.23
2018-06-21T06:09:06.650Z,8.97
2018-06-21T06:10:12.104Z,8.03
2018-06-21T06:11:17.561Z,9.63
2018-06-21T06:12:23.053Z,9.63
2018-06-21T06:13:28.701Z,7.83
2018-06-21T06:14:34.137Z,9.17
2018-06-21T06:15:39.544Z,10.87
2018-06-21T06:16:44.965Z,9.60
2018-06-21T06:17:50.403Z,17.03
2018-06-21T06:18:56.131Z,9.30
2018-06-21T06:20:02.488Z,6.83
2018-06-21T06:21:07.914Z,8.00
2018-06-21T06:22:13.305Z,5.37
2018-06-21T06:23:18.787Z,14.43
2018-06-21T06:24:24.217Z,7.87
2018-06-21T06:25:29.643Z,5.07
2018-06-21T06:26:35.205Z,8.50
2018-06-21T06:27:40.592Z,9.30
2018-06-21T06:28:46.500Z,8.30
2018-06-21T06:29:51.747Z,9.23
2018-06-21T06:30:57.194Z,13.10
2018-06-21T06:32:02.589Z,8.93
2018-06-21T06:33:08.117Z,5.57
2018-06-21T06:34:13.552Z,11.87
2018-06-21T06:35:18.953Z,6.30
2018-06-21T06:36:24.397Z,8.23
2018-06-21T06:37:29.829Z,11.40
2018-06-21T06:38:35.274Z,6.80
2018-06-21T06:39:40.833Z,11.30
2018-06-21T06:40:46.226Z,5.77
2018-06-21T06:41:52.390Z,8.73
2018-06-21T06:42:58.145Z,5.20
2018-06-21T06:44:03.646Z,23.63
2018-06-21T06:45:09.129Z,7.70
2018-06-21T06:46:14.657Z,6.20
2018-06-21T06:47:20.057Z,5.43
2018-06-21T06:48:26.176Z,9.53
2018-06-21T06:49:31.614Z,13.20
2018-06-21T06:50:37.058Z,6.37
2018-06-21T06:51:42.453Z,6.13
2018-06-21T06:52:47.894Z,10.43
2018-06-21T06:53:53.301Z,8.27
2018-06-21T06:54:58.709Z,9.10
2018-06-21T06:56:04.161Z,10.50
2018-06-21T06:57:09.621Z,8.97
2018-06-21T06:58:15.125Z,11.03
2018-06-21T06:59:20.657Z,9.80
2018-06-21T07:00:26.093Z,11.00
2018-06-21T07:01:31.993Z,12.90
2018-06-21T07:02:37.545Z,12.07
2018-06-21T07:03:42.953Z,6.40
2018-06-21T07:04:48.373Z,8.30
2018-06-21T07:05:53.802Z,11.43
2018-06-21T07:06:59.194Z,8.90
2018-06-21T07:08:04.737Z,6.43
2018-06-21T07:09:10.841Z,9.70
2018-06-21T07:10:16.301Z,11.50
2018-06-21T07:11:21.781Z,9.63
2018-06-21T07:12:27.217Z,3.83
2018-06-21T07:13:32.904Z,7.07
2018-06-21T07:14:38.489Z,6.37
2018-06-21T07:15:44.821Z,4.90
2018-06-21T07:16:50.251Z,6.90
2018-06-21T07:17:55.802Z,5.00
2018-06-21T07:19:01.449Z,12.13
2018-06-21T07:20:06.993Z,8.77
2018-06-21T07:21:12.448Z,8.73
2018-06-21T07:22:17.865Z,3.70
2018-06-21T07:23:23.268Z,6.97
2018-06-21T07:24:28.914Z,7.67
2018-06-21T07:25:34.305Z,8.57
2018-06-21T07:26:40.352Z,8.07
2018-06-21T07:27:45.786Z,6.23
2018-06-21T07:28:51.173Z,3.83
2018-06-21T07:29:56.613Z,12.97
2018-06-21T07:31:02.002Z,3.37
2018-06-21T07:32:07.478Z,7.43
2018-06-21T07:33:12.892Z,5.70
2018-06-21T07:34:18.380Z,7.40
2018-06-21T07:35:23.947Z,4.83
2018-06-21T07:36:29.382Z,8.43
2018-06-21T07:37:34.806Z,8.17
2018-06-21T07:38:40.269Z,12.67
2018-06-21T07:39:45.685Z,6.40
2018-06-21T07:40:51.106Z,10.30
2018-06-21T07:41:56.494Z,6.90
2018-06-21T07:43:01.906Z,7.40
2018-06-21T07:44:07.776Z,3.23
2018-06-21T07:45:12.876Z,7.23
2018-06-21T07:46:18.197Z,4.10
2018-06-21T07:47:23.729Z,6.40
2018-06-21T07:48:29.109Z,7.33
2018-06-21T07:49:34.488Z,8.37
2018-06-21T07:50:39.973Z,3.57
2018-06-21T07:51:45.692Z,4.57
2018-06-21T07:52:51.920Z,9.70
2018-06-21T07:53:57.465Z,4.60
2018-06-21T07:55:02.874Z,7.90
2018-06-21T07:56:08.364Z,7.60
2018-06-21T07:57:13.989Z,10.60
2018-06-21T07:58:19.849Z,5.27
2018-06-21T07:59:25.319Z,5.13
2018-06-21T08:00:30.795Z,2.30
2018-06-21T08:01:36.185Z,8.27
2018-06-21T08:02:41.673Z,5.87
2018-06-21T08:03:47.090Z,8.50
2018-06-21T08:04:52.557Z,3.43
2018-06-21T08:05:57.691Z,2.97
2018-06-21T08:07:02.981Z,7.00
2018-06-21T08:08:08.703Z,4.27
2018-06-21T08:09:14.519Z,4.37
2018-06-21T08:10:19.941Z,6.63
2018-06-21T08:11:25.375Z,2.47
2018-06-21T08:12:30.766Z,7.40
2018-06-21T08:13:36.450Z,9.70
2018-06-21T08:14:41.938Z,13.43
2018-06-21T08:15:47.353Z,5.47
2018-06-21T08:16:52.872Z,7.73
2018-06-21T08:17:58.378Z,5.53
2018-06-21T08:19:03.795Z,6.73
2018-06-21T08:20:09.354Z,11.13
2018-06-21T08:21:14.788Z,9.63
2018-06-21T08:22:20.193Z,7.77
2018-06-21T08:23:25.694Z,9.13
2018-06-21T08:24:31.098Z,5.07
2018-06-21T08:25:36.542Z,7.07
2018-06-21T08:26:42.081Z,4.73
2018-06-21T08:27:47.501Z,5.13
2018-06-21T08:28:52.932Z,5.87
2018-06-21T08:29:58.317Z,7.43
2018-06-21T08:31:03.748Z,7.63
2018-06-21T08:32:09.187Z,6.20
2018-06-21T08:33:14.617Z,11.80
2018-06-21T08:34:20.093Z,7.67
2018-06-21T08:35:25.490Z,11.53
2018-06-21T08:36:30.929Z,5.87
2018-06-21T08:37:36.526Z,5.93
2018-06-21T08:38:42.172Z,6.67
2018-06-21T08:39:47.609Z,4.40
2018-06-21T08:40:52.998Z,2.50
2018-06-21T08:41:58.394Z,6.20
2018-06-21T08:43:03.805Z,9.00
2018-06-21T08:44:09.241Z,9.30
2018-06-21T08:45:14.659Z,6.03
2018-06-21T08:46:20.079Z,4.87
2018-06-21T08:47:25.488Z,7.50
2018-06-21T08:48:30.912Z,10.53
2018-06-21T08:49:36.459Z,5.23
2018-06-21T08:50:41.882Z,10.13
2018-06-21T08:51:47.310Z,6.50
2018-06-21T08:52:52.751Z,3.03
2018-06-21T08:53:58.171Z,10.97
2018-06-21T08:55:03.767Z,6.73
2018-06-21T08:56:09.197Z,7.70
2018-06-21T08:57:14.605Z,4.87
2018-06-21T08:58:20.150Z,5.00
2018-06-21T08:59:25.539Z,3.47
2018-06-21T09:00:30.958Z,6.13
2018-06-21T09:01:36.589Z,4.23
2018-06-21T09:02:41.986Z,4.40
2018-06-21T09:03:47.418Z,9.83
2018-06-21T09:04:53.011Z,5.43
2018-06-21T09:05:58.445Z,4.90
2018-06-21T09:07:03.903Z,4.57
2018-06-21T09:08:09.278Z,10.63
2018-06-21T09:09:14.694Z,5.37
2018-06-21T09:10:20.132Z,6.50
2018-06-21T09:11:25.582Z,10.30
2018-06-21T09:12:33.974Z,6.10
2018-06-21T09:13:39.389Z,5.43
2018-06-21T09:14:45.040Z,10.23
2018-06-21T09:15:50.474Z,3.40
2018-06-21T09:16:55.945Z,7.97
2018-06-21T09:18:02.282Z,5.30
2018-06-21T09:19:07.702Z,7.07
2018-06-21T09:20:13.113Z,15.17
2018-06-21T09:21:18.277Z,7.30
2018-06-21T09:22:23.625Z,7.13
2018-06-21T09:23:29.056Z,4.07
2018-06-21T09:24:34.443Z,12.47
2018-06-21T09:25:39.838Z,2.10
2018-06-21T09:26:45.337Z,11.60
2018-06-21T09:27:50.945Z,12.40
2018-06-21T09:28:56.338Z,19.93
2018-06-21T09:30:01.877Z,6.60
2018-06-21T09:31:07.330Z,13.20
2018-06-21T09:32:12.850Z,7.23
2018-06-21T09:33:18.554Z,6.70
2018-06-21T09:34:23.644Z,3.80
2018-06-21T09:35:28.969Z,3.47
2018-06-21T09:36:37.508Z,8.73
2018-06-21T09:37:47.984Z,5.77
2018-06-21T09:38:58.405Z,5.77
2018-06-21T09:40:08.924Z,4.47
2018-06-21T09:41:19.465Z,6.30
2018-06-21T09:42:30.037Z,10.03
2018-06-21T09:43:50.297Z,10.17
2018-06-21T09:44:51.005Z,5.83
2018-06-21T09:46:01.701Z,10.33
2018-06-21T09:47:12.293Z,3.53
2018-06-21T09:48:22.810Z,6.57
2018-06-21T09:49:31.395Z,4.23
2018-06-21T09:50:36.990Z,8.47
2018-06-21T09:51:42.386Z,10.23
2018-06-21T09:52:47.811Z,4.73
2018-06-21T09:53:53.438Z,3.27
2018-06-21T09:54:58.959Z,3.90
2018-06-21T09:56:04.421Z,6.13
2018-06-21T09:57:09.925Z,7.20
2018-06-21T09:58:15.365Z,6.13
2018-06-21T09:59:20.856Z,5.07
2018-06-21T10:00:31.466Z,6.30
2018-06-21T10:01:37.265Z,4.40
2018-06-21T10:02:42.693Z,3.13
2018-06-21T10:03:48.230Z,4.97
2018-06-21T10:04:53.618Z,9.10
2018-06-21T10:05:59.016Z,7.23
2018-06-21T10:07:04.720Z,7.33
2018-06-21T10:08:10.077Z,5.83
2018-06-21T10:09:15.494Z,7.03
2018-06-21T10:10:21.072Z,4.33
2018-06-21T10:11:26.496Z,7.90
2018-06-21T10:12:31.949Z,5.43
2018-06-21T10:13:37.342Z,7.53
2018-06-21T10:14:43.009Z,4.30
2018-06-21T10:15:48.572Z,4.30
2018-06-21T10:16:53.958Z,6.40
2018-06-21T10:18:01.675Z,16.80
2018-06-21T10:19:07.296Z,5.03
2018-06-21T10:20:13.184Z,3.93
2018-06-21T10:21:18.633Z,3.10
2018-06-21T10:22:23.997Z,6.87
2018-06-21T10:23:29.595Z,7.50
2018-06-21T10:24:34.998Z,2.50
2018-06-21T10:25:40.415Z,4.33
2018-06-21T10:26:45.802Z,4.13
2018-06-21T10:27:51.226Z,4.40
2018-06-21T10:28:56.756Z,14.17
2018-06-21T10:30:02.218Z,3.07
2018-06-21T10:31:07.675Z,5.70
2018-06-21T10:32:13.070Z,4.17
2018-06-21T10:33:18.437Z,2.73
2018-06-21T10:34:23.874Z,4.07
2018-06-21T10:35:29.297Z,11.20
2018-06-21T10:36:34.706Z,5.07
2018-06-21T10:37:40.247Z,11.60
2018-06-21T10:38:54.940Z,4.67
2018-06-21T10:40:00.342Z,6.53
2018-06-21T10:41:05.781Z,11.00
2018-06-21T10:42:11.199Z,8.30
2018-06-21T10:43:16.660Z,6.97
2018-06-21T10:44:22.099Z,8.77
2018-06-21T10:45:27.809Z,7.67
2018-06-21T10:46:33.474Z,8.90
2018-06-21T10:47:38.869Z,6.00
2018-06-21T10:48:44.290Z,10.53
2018-06-21T10:49:49.812Z,8.33
2018-06-21T10:50:55.236Z,11.07
2018-06-21T10:52:00.316Z,2.43
2018-06-21T10:53:05.681Z,8.73
2018-06-21T10:54:11.159Z,6.53
2018-06-21T10:55:16.694Z,8.23
2018-06-21T10:56:22.137Z,4.40
2018-06-21T10:57:27.641Z,8.13
2018-06-21T10:58:33.199Z,3.83
2018-06-21T10:59:38.722Z,7.43
2018-06-21T11:00:44.350Z,12.67
2018-06-21T11:01:49.794Z,6.97
2018-06-21T11:02:55.222Z,6.20
2018-06-21T11:04:00.678Z,8.10
2018-06-21T11:05:06.225Z,6.27
2018-06-21T11:06:11.814Z,4.10
2018-06-21T11:07:17.217Z,7.10
2018-06-21T11:08:22.703Z,9.77
2018-06-21T11:09:28.193Z,8.90
2018-06-21T11:10:33.677Z,2.93
2018-06-21T11:11:39.182Z,6.93
2018-06-21T11:12:44.808Z,5.63
2018-06-21T11:13:50.513Z,3.13
2018-06-21T11:14:55.909Z,9.30
2018-06-21T11:16:01.360Z,6.47
2018-06-21T11:17:06.791Z,6.10
2018-06-21T11:18:12.309Z,4.77
2018-06-21T11:19:17.908Z,5.40
2018-06-21T11:20:23.325Z,4.33
2018-06-21T11:21:28.834Z,4.70
2018-06-21T11:22:34.298Z,5.17
2018-06-21T11:23:39.717Z,4.60
2018-06-21T11:24:45.121Z,8.60
2018-06-21T11:25:50.554Z,13.63
2018-06-21T11:26:56.020Z,14.77
2018-06-21T11:28:01.469Z,7.13
2018-06-21T11:29:06.826Z,3.30
2018-06-21T11:30:12.285Z,12.23
2018-06-21T11:31:17.750Z,8.40
2018-06-21T11:32:23.201Z,10.70
2018-06-21T11:33:28.597Z,11.10
2018-06-21T11:34:34.057Z,4.00
2018-06-21T11:35:39.482Z,8.40
2018-06-21T11:36:44.894Z,4.60
2018-06-21T11:37:50.369Z,9.20
2018-06-21T11:38:55.873Z,7.73
2018-06-21T11:40:01.328Z,8.77
2018-06-21T11:41:06.915Z,3.57
2018-06-21T11:42:12.340Z,7.80
2018-06-21T11:43:18.389Z,4.63
2018-06-21T11:44:24.112Z,7.50
2018-06-21T11:45:29.518Z,9.97
2018-06-21T11:46:34.989Z,7.30
2018-06-21T11:47:40.413Z,9.40
2018-06-21T11:48:45.890Z,10.67
2018-06-21T11:49:51.295Z,5.37
2018-06-21T11:50:56.734Z,3.53
2018-06-21T11:52:02.145Z,5.03
2018-06-21T11:53:07.641Z,9.07
2018-06-21T11:54:12.758Z,6.40
2018-06-21T11:55:18.099Z,7.23
2018-06-21T11:56:23.512Z,4.07
2018-06-21T11:57:29.140Z,7.73
2018-06-21T11:58:34.534Z,6.37
2018-06-21T11:59:39.938Z,4.83
2018-06-21T12:00:45.369Z,7.17
2018-06-21T12:01:50.853Z,3.57
2018-06-21T12:02:56.352Z,6.43
2018-06-21T12:04:01.765Z,5.43
2018-06-21T12:05:07.205Z,10.73
2018-06-21T12:06:13.010Z,4.30
2018-06-21T12:07:18.485Z,4.30
2018-06-21T12:08:24.053Z,4.13
2018-06-21T12:09:29.483Z,5.50
2018-06-21T12:10:34.903Z,3.87
2018-06-21T12:11:40.370Z,10.80
2018-06-21T12:12:45.799Z,7.10
2018-06-21T12:13:51.331Z,5.20
2018-06-21T12:14:56.765Z,5.97
2018-06-21T12:16:02.805Z,6.10
2018-06-21T12:17:08.473Z,6.80
2018-06-21T12:18:13.912Z,7.90
2018-06-21T12:19:19.376Z,12.23
2018-06-21T12:20:24.840Z,7.13
2018-06-21T12:21:30.296Z,5.90
2018-06-21T12:22:35.717Z,5.00
2018-06-21T12:23:41.160Z,6.77
2018-06-21T12:24:46.557Z,6.63
2018-06-21T12:25:51.977Z,5.57
2018-06-21T12:26:57.695Z,5.50
2018-06-21T12:28:03.096Z,6.63
2018-06-21T12:29:08.733Z,7.60
2018-06-21T12:30:14.166Z,12.53
2018-06-21T12:31:20.549Z,4.40
2018-06-21T12:32:26.090Z,7.50
2018-06-21T12:33:31.530Z,4.63
2018-06-21T12:34:37.161Z,7.07
2018-06-21T12:35:42.562Z,9.70
2018-06-21T12:36:47.977Z,3.60
2018-06-21T12:37:53.501Z,8.20
2018-06-21T12:38:58.985Z,9.87
2018-06-21T12:40:04.641Z,14.33
2018-06-21T12:41:10.058Z,2.73
2018-06-21T12:42:15.521Z,7.53
2018-06-21T12:43:20.957Z,6.83
2018-06-21T12:44:26.469Z,5.30
2018-06-21T12:45:31.893Z,6.00
2018-06-21T12:46:37.373Z,2.87
2018-06-21T12:47:42.892Z,7.93
2018-06-21T12:48:48.376Z,3.23
2018-06-21T12:49:53.745Z,9.00
2018-06-21T12:50:59.155Z,4.40
2018-06-21T12:52:04.626Z,3.07
2018-06-21T12:53:10.145Z,7.30
2018-06-21T12:54:15.597Z,8.97
2018-06-21T12:55:21.335Z,3.23
2018-06-21T12:56:26.793Z,8.57
2018-06-21T12:57:32.204Z,7.00
2018-06-21T12:58:37.749Z,5.33
2018-06-21T12:59:43.209Z,6.77
2018-06-21T13:00:48.647Z,2.83
2018-06-21T13:01:54.090Z,2.40
2018-06-21T13:02:59.533Z,5.60
2018-06-21T13:04:05.170Z,3.87
2018-06-21T13:05:10.615Z,7.57
2018-06-21T13:06:16.014Z,6.50
2018-06-21T13:07:21.401Z,2.83
2018-06-21T13:08:43.967Z,8.97
2018-06-21T13:10:06.182Z,8.60
2018-06-21T13:12:30.794Z,3.53
2018-06-21T13:13:36.282Z,5.00
2018-06-21T13:14:41.670Z,4.77
2018-06-21T13:15:47.382Z,4.77
2018-06-21T13:16:52.962Z,3.80
2018-06-21T13:17:58.582Z,3.93
2018-06-21T13:19:03.987Z,9.13
2018-06-21T13:20:09.415Z,8.43
2018-06-21T13:21:14.981Z,6.50
2018-06-21T13:22:20.720Z,9.93
2018-06-21T13:23:26.115Z,7.57
2018-06-21T13:24:31.515Z,11.60
2018-06-21T13:25:36.969Z,4.57
2018-06-21T13:26:42.394Z,5.60
2018-06-21T13:27:47.809Z,5.50
2018-06-21T13:28:53.305Z,10.43
2018-06-21T13:29:58.859Z,4.70
2018-06-21T13:31:04.036Z,4.67
2018-06-21T13:32:09.725Z,6.60
2018-06-21T13:33:15.042Z,8.93
2018-06-21T13:34:20.480Z,6.57
2018-06-21T13:35:25.899Z,2.03
2018-06-21T13:36:31.277Z,4.43
2018-06-21T13:37:36.813Z,4.23
2018-06-21T13:38:42.236Z,6.53
2018-06-21T13:39:47.707Z,11.07
2018-06-21T13:40:53.126Z,9.00
2018-06-21T13:41:58.548Z,6.07
2018-06-21T13:43:04.140Z,7.93
2018-06-21T13:44:09.563Z,3.50
2018-06-21T13:45:15.007Z,5.23
2018-06-21T13:46:20.473Z,5.37
2018-06-21T13:47:25.908Z,6.80
2018-06-21T13:48:31.321Z,2.83
2018-06-21T13:49:36.780Z,5.93
2018-06-21T13:50:42.193Z,2.37
2018-06-21T13:51:47.909Z,4.73
2018-06-21T13:52:53.326Z,7.37
2018-06-21T13:53:58.747Z,13.40
2018-06-21T13:55:04.265Z,1.43
2018-06-21T13:56:09.685Z,3.80
2018-06-21T13:57:15.356Z,4.10
2018-06-21T13:58:20.893Z,6.60
2018-06-21T13:59:26.313Z,6.87
2018-06-21T14:00:31.756Z,11.00
2018-06-21T14:01:37.175Z,5.90
2018-06-21T14:02:42.901Z,5.30
2018-06-21T14:03:48.307Z,6.90
2018-06-21T14:04:53.734Z,5.53
2018-06-21T14:05:59.301Z,2.90
2018-06-21T14:07:04.771Z,6.27
2018-06-21T14:08:10.293Z,4.30
2018-06-21T14:09:15.601Z,5.30
2018-06-21T14:10:21.186Z,4.97
2018-06-21T14:11:26.595Z,4.10
2018-06-21T14:12:32.014Z,2.50
2018-06-21T14:13:37.725Z,1.87
2018-06-21T14:14:43.181Z,5.03
2018-06-21T14:15:48.566Z,2.60
2018-06-21T14:16:53.983Z,1.90
2018-06-21T14:17:59.406Z,4.80
2018-06-21T14:19:05.032Z,2.93
2018-06-21T14:20:10.465Z,7.40
2018-06-21T14:21:16.177Z,4.00
2018-06-21T14:22:21.596Z,3.13